createdAt,value
2022-08-27T00:02:11.842Z,4.50
2022-08-27T00:04:42.558Z,7.95
2022-08-27T00:07:11.232Z,5.30
2022-08-27T00:09:40.624Z,3.95
2022-08-27T00:12:09.818Z,5.80
2022-08-27T00:14:39.772Z,5.35
2022-08-27T00:17:08.837Z,4.47
2022-08-27T00:19:37.663Z,6.72
2022-08-27T00:22:12.012Z,5.38
2022-08-27T00:24:48.723Z,6.97
2022-08-27T00:27:17.366Z,6.18
2022-08-27T00:29:45.774Z,6.38
2022-08-27T00:32:14.248Z,6.63
2022-08-27T00:34:42.717Z,5.10
2022-08-27T00:37:12.437Z,5.07
2022-08-27T00:39:40.817Z,5.97
2022-08-27T00:42:09.477Z,5.65
2022-08-27T00:44:38.909Z,5.97
2022-08-27T00:47:11.597Z,7.10
2022-08-27T00:49:44.659Z,7.10
2022-08-27T00:52:19.689Z,9.15
2022-08-27T00:54:49.051Z,5.43
2022-08-27T00:57:18.495Z,5.20
2022-08-27T00:59:47.457Z,7.35
2022-08-27T01:02:22.064Z,6.78
2022-08-27T01:04:54.183Z,5.68
2022-08-27T01:07:28.540Z,4.70
2022-08-27T01:10:01.337Z,6.97
2022-08-27T01:12:32.862Z,5.32
2022-08-27T01:15:04.445Z,6.65
2022-08-27T01:17:33.147Z,4.47
2022-08-27T01:20:08.499Z,3.95
2022-08-27T01:22:48.248Z,8.80
2022-08-27T01:25:19.416Z,7.20
2022-08-27T01:27:48.829Z,5.25
2022-08-27T01:30:19.892Z,10.13
2022-08-27T01:32:49.656Z,6.03
2022-08-27T01:35:19.000Z,9.10
2022-08-27T01:37:52.959Z,7.00
2022-08-27T01:40:26.846Z,7.80
2022-08-27T01:42:57.762Z,8.88
2022-08-27T01:45:28.479Z,6.57
2022-08-27T01:47:57.286Z,7.63
2022-08-27T01:50:28.625Z,8.80
2022-08-27T01:52:57.409Z,6.50
2022-08-27T01:55:28.221Z,10.98
2022-08-27T01:57:57.000Z,5.97
2022-08-27T02:00:27.068Z,8.05
2022-08-27T02:02:56.266Z,8.48
2022-08-27T02:05:24.997Z,7.60
2022-08-27T02:07:56.193Z,8.90
2022-08-27T02:10:28.372Z,11.25
2022-08-27T02:12:57.116Z,8.40
2022-08-27T02:15:26.712Z,8.80
2022-08-27T02:17:55.300Z,6.85
2022-08-27T02:20:24.662Z,8.77
2022-08-27T02:22:57.904Z,8.60
2022-08-27T02:25:28.937Z,10.75
2022-08-27T02:28:00.433Z,10.77
2022-08-27T02:30:32.005Z,8.60
2022-08-27T02:33:00.971Z,8.68
2022-08-27T02:35:30.762Z,7.45
2022-08-27T02:37:59.692Z,8.52
2022-08-27T02:40:29.807Z,6.88
2022-08-27T02:42:58.594Z,10.30
2022-08-27T02:45:26.881Z,7.72
2022-08-27T02:47:55.344Z,8.15
2022-08-27T02:50:26.919Z,9.60
2022-08-27T02:52:59.192Z,7.38
2022-08-27T02:55:28.728Z,9.82
2022-08-27T02:57:58.183Z,8.32
2022-08-27T03:00:28.693Z,6.90
2022-08-27T03:02:57.668Z,8.13
2022-08-27T03:05:26.708Z,6.97
2022-08-27T03:07:55.113Z,8.30
2022-08-27T03:10:23.854Z,7.22
2022-08-27T03:12:56.814Z,9.73
2022-08-27T03:15:25.604Z,6.47
2022-08-27T03:18:11.543Z,8.18
2022-08-27T03:20:40.944Z,5.65
2022-08-27T03:23:10.300Z,9.88
2022-08-27T03:25:39.488Z,8.25
2022-08-27T03:28:18.731Z,10.88
2022-08-27T03:30:52.262Z,10.80
2022-08-27T03:33:22.364Z,10.18
2022-08-27T03:35:52.057Z,11.02
2022-08-27T03:38:21.007Z,7.15
2022-08-27T03:40:51.233Z,8.25
2022-08-27T03:43:22.848Z,9.65
2022-08-27T03:46:05.615Z,14.23
2022-08-27T03:48:34.387Z,9.80
2022-08-27T03:51:07.969Z,10.18
2022-08-27T03:53:36.841Z,11.88
2022-08-27T03:56:06.262Z,9.52
2022-08-27T03:58:36.324Z,8.18
2022-08-27T04:01:05.273Z,10.70
2022-08-27T04:03:34.635Z,9.20
2022-08-27T04:06:03.627Z,8.68
2022-08-27T04:08:31.994Z,9.35
2022-08-27T04:11:00.421Z,11.15
2022-08-27T04:13:29.162Z,11.93
2022-08-27T04:16:02.445Z,12.10
2022-08-27T04:18:30.894Z,8.57
2022-08-27T04:20:59.262Z,7.75
2022-08-27T04:23:27.854Z,9.85
2022-08-27T04:25:56.223Z,8.10
2022-08-27T04:28:24.563Z,11.02
2022-08-27T04:30:52.963Z,10.65
2022-08-27T04:33:22.749Z,11.93
2022-08-27T04:35:58.931Z,10.30
2022-08-27T04:38:27.370Z,11.20
2022-08-27T04:41:13.268Z,11.13
2022-08-27T04:43:42.769Z,8.88
2022-08-27T04:46:11.052Z,9.07
2022-08-27T04:48:40.684Z,9.85
2022-08-27T04:51:09.032Z,8.48
2022-08-27T04:53:41.195Z,10.30
2022-08-27T04:56:14.354Z,10.40
2022-08-27T04:58:43.546Z,9.10
2022-08-27T05:01:18.081Z,9.13
2022-08-27T05:03:47.966Z,9.10
2022-08-27T05:06:17.437Z,9.50
2022-08-27T05:08:45.692Z,11.48
2022-08-27T05:11:16.404Z,8.48
2022-08-27T05:13:45.742Z,10.55
2022-08-27T05:16:18.244Z,11.18
2022-08-27T05:18:48.900Z,12.30
2022-08-27T05:21:22.816Z,13.10
2022-08-27T05:23:52.228Z,8.85
2022-08-27T05:26:21.347Z,15.30
2022-08-27T05:28:49.841Z,8.23
2022-08-27T05:31:20.533Z,9.77
2022-08-27T05:33:51.205Z,15.00
2022-08-27T05:36:21.486Z,10.65
2022-08-27T05:38:51.467Z,9.68
2022-08-27T05:41:33.996Z,10.82
2022-08-27T05:44:18.595Z,13.90
2022-08-27T05:46:53.715Z,14.52
2022-08-27T05:49:23.198Z,11.95
2022-08-27T05:51:51.800Z,9.82
2022-08-27T05:54:20.186Z,12.32
2022-08-27T05:56:50.311Z,7.55
2022-08-27T05:59:36.638Z,9.93
2022-08-27T06:02:06.131Z,10.30
2022-08-27T06:04:36.225Z,7.90
2022-08-27T06:07:04.754Z,8.98
2022-08-27T06:09:33.183Z,7.88
2022-08-27T06:12:03.673Z,10.50
2022-08-27T06:14:32.201Z,8.85
2022-08-27T06:17:02.132Z,12.23
2022-08-27T06:19:30.513Z,11.02
2022-08-27T06:22:10.294Z,10.05
2022-08-27T06:24:40.558Z,11.10
2022-08-27T06:27:11.259Z,13.38
2022-08-27T06:29:39.688Z,16.15
2022-08-27T06:32:09.162Z,13.85
2022-08-27T06:34:38.227Z,7.90
2022-08-27T06:37:08.616Z,7.10
2022-08-27T06:39:39.231Z,7.63
2022-08-27T06:42:11.468Z,11.40
2022-08-27T06:44:40.208Z,6.05
2022-08-27T06:47:08.639Z,4.93
2022-08-27T06:49:40.102Z,6.10
2022-08-27T06:52:09.845Z,9.55
2022-08-27T06:54:39.822Z,5.45
2022-08-27T06:57:08.121Z,5.63
2022-08-27T06:59:36.406Z,5.60
2022-08-27T07:02:07.192Z,5.93
2022-08-27T07:04:35.467Z,6.53
2022-08-27T07:07:04.867Z,6.68
2022-08-27T07:09:35.607Z,3.47
2022-08-27T07:12:05.145Z,6.00
2022-08-27T07:14:37.777Z,6.65
2022-08-27T07:17:10.831Z,5.32
2022-08-27T07:19:44.013Z,6.60
2022-08-27T07:22:13.302Z,5.45
2022-08-27T07:24:43.250Z,4.40
2022-08-27T07:27:12.093Z,4.80
2022-08-27T07:29:40.802Z,4.63
2022-08-27T07:32:09.138Z,5.15
2022-08-27T07:34:37.794Z,4.47
2022-08-27T07:37:06.321Z,4.72
2022-08-27T07:39:34.792Z,6.75
2022-08-27T07:42:22.041Z,3.95
2022-08-27T07:44:50.625Z,3.15
2022-08-27T07:47:19.182Z,3.75
2022-08-27T07:49:48.650Z,7.07
2022-08-27T07:52:17.228Z,6.00
2022-08-27T07:54:45.762Z,5.35
2022-08-27T07:57:15.339Z,3.97
2022-08-27T07:59:43.764Z,3.67
2022-08-27T08:02:13.032Z,5.50
2022-08-27T08:04:41.704Z,4.07
2022-08-27T08:07:10.331Z,3.63
2022-08-27T08:09:38.627Z,6.55
2022-08-27T08:12:07.534Z,7.80
2022-08-27T08:14:37.492Z,6.90
2022-08-27T08:17:10.283Z,4.32
2022-08-27T08:19:40.432Z,3.50
2022-08-27T08:22:09.106Z,4.90
2022-08-27T08:24:37.531Z,5.20
2022-08-27T08:27:07.636Z,5.32
2022-08-27T08:29:38.265Z,4.75
2022-08-27T08:32:07.582Z,6.20
2022-08-27T08:34:36.835Z,5.82
2022-08-27T08:37:06.320Z,4.78
2022-08-27T08:39:34.666Z,5.63
2022-08-27T08:42:07.191Z,4.88
2022-08-27T08:44:40.701Z,3.70
2022-08-27T08:47:13.518Z,5.07
2022-08-27T08:49:51.629Z,5.18
2022-08-27T08:52:31.135Z,5.00
2022-08-27T08:55:08.628Z,4.95
2022-08-27T08:57:41.909Z,3.90
2022-08-27T09:00:14.464Z,6.43
2022-08-27T09:02:50.379Z,4.22
2022-08-27T09:05:18.791Z,4.28
2022-08-27T09:07:58.223Z,3.80
2022-08-27T09:10:44.829Z,4.13
2022-08-27T09:13:23.103Z,3.17
2022-08-27T09:15:55.323Z,2.83
2022-08-27T09:18:27.987Z,3.67
2022-08-27T09:21:08.749Z,3.85
2022-08-27T09:23:46.806Z,2.85
2022-08-27T09:26:20.805Z,3.38
2022-08-27T09:29:06.076Z,5.93
2022-08-27T09:31:40.959Z,4.65
2022-08-27T09:34:09.681Z,2.85
2022-08-27T09:36:50.598Z,4.07
2022-08-27T09:39:19.079Z,4.65
2022-08-27T09:41:49.461Z,4.55
2022-08-27T09:44:20.674Z,3.67
2022-08-27T09:46:59.202Z,2.92
2022-08-27T09:49:27.889Z,5.57
2022-08-27T09:51:57.286Z,6.10
2022-08-27T09:54:31.639Z,6.65
2022-08-27T09:57:00.773Z,5.03
2022-08-27T09:59:35.755Z,5.30
2022-08-27T10:02:12.208Z,4.70
2022-08-27T10:04:50.974Z,5.65
2022-08-27T10:07:32.851Z,2.63
2022-08-27T10:10:06.128Z,2.60
2022-08-27T10:12:40.296Z,4.00
2022-08-27T10:15:11.147Z,3.58
2022-08-27T10:17:52.407Z,4.78
2022-08-27T10:20:30.826Z,4.32
2022-08-27T10:23:10.230Z,3.15
2022-08-27T10:25:44.709Z,3.40
2022-08-27T10:28:25.296Z,3.88
2022-08-27T10:31:09.789Z,3.38
2022-08-27T10:33:54.032Z,3.03
2022-08-27T10:36:36.542Z,3.92
2022-08-27T10:39:14.600Z,5.22
2022-08-27T10:41:45.947Z,4.80
2022-08-27T10:44:32.399Z,4.80
2022-08-27T10:47:16.558Z,3.35
2022-08-27T10:49:54.526Z,3.80
2022-08-27T10:52:28.186Z,8.10
2022-08-27T10:55:02.625Z,4.18
2022-08-27T10:57:58.997Z,5.03
2022-08-27T11:00:37.971Z,4.05
2022-08-27T11:03:12.302Z,5.30
2022-08-27T11:05:47.124Z,3.15
2022-08-27T11:08:20.201Z,2.55
2022-08-27T11:10:50.642Z,3.20
2022-08-27T11:13:24.565Z,2.92
2022-08-27T11:15:55.923Z,7.35
2022-08-27T11:18:34.222Z,5.72
2022-08-27T11:21:09.847Z,5.15
2022-08-27T11:23:44.371Z,4.45
2022-08-27T11:26:13.553Z,3.42
2022-08-27T11:28:44.875Z,10.90
2022-08-27T11:31:21.090Z,3.40
2022-08-27T11:33:59.807Z,4.30
2022-08-27T11:37:09.664Z,3.90
2022-08-27T11:39:52.877Z,5.53
2022-08-27T11:42:30.021Z,3.15
2022-08-27T11:45:08.145Z,5.80
2022-08-27T11:47:38.821Z,4.30
2022-08-27T11:50:16.958Z,4.88
2022-08-27T11:52:59.221Z,3.92
2022-08-27T11:55:30.723Z,7.07
2022-08-27T11:58:09.776Z,3.63
2022-08-27T12:00:40.132Z,3.60
2022-08-27T12:03:10.803Z,5.03
2022-08-27T12:05:43.738Z,3.85
2022-08-27T12:08:21.203Z,5.93
2022-08-27T12:11:04.901Z,3.17
2022-08-27T12:13:40.265Z,3.45
2022-08-27T12:16:23.539Z,3.22
2022-08-27T12:19:04.257Z,5.90
2022-08-27T12:21:43.401Z,4.43
2022-08-27T12:24:46.693Z,4.70
2022-08-27T12:27:29.434Z,2.90
2022-08-27T12:29:59.826Z,1.98
2022-08-27T12:32:31.412Z,4.63
2022-08-27T12:35:11.861Z,4.85
2022-08-27T12:37:44.674Z,4.57
2022-08-27T12:40:24.473Z,3.28
2022-08-27T12:43:07.287Z,5.60
2022-08-27T12:45:42.594Z,5.57
2022-08-27T12:48:11.698Z,6.55
2022-08-27T12:50:40.340Z,5.22
2022-08-27T12:53:27.573Z,5.28
2022-08-27T12:56:09.035Z,5.68
2022-08-27T12:58:48.869Z,3.65
2022-08-27T13:01:32.333Z,6.05
2022-08-27T13:04:01.463Z,3.95
2022-08-27T13:06:33.071Z,4.25
2022-08-27T13:09:02.547Z,3.95
2022-08-27T13:11:32.659Z,3.53
2022-08-27T13:14:11.285Z,4.30
2022-08-27T13:16:43.787Z,3.05
2022-08-27T13:19:26.256Z,7.55
2022-08-27T13:21:55.210Z,3.13
2022-08-27T13:24:31.465Z,5.97
2022-08-27T13:27:00.170Z,5.85
2022-08-27T13:29:29.935Z,5.75
2022-08-27T13:31:59.786Z,5.45
2022-08-27T13:34:33.054Z,5.20
2022-08-27T13:37:04.244Z,3.97
2022-08-27T13:39:34.071Z,3.92
2022-08-27T13:42:03.784Z,4.10
2022-08-27T13:44:36.755Z,6.88
2022-08-27T13:47:08.322Z,4.13
2022-08-27T13:49:40.302Z,3.58
2022-08-27T13:52:17.483Z,4.60
2022-08-27T13:54:47.021Z,4.50
2022-08-27T13:57:25.654Z,4.95
2022-08-27T13:59:55.586Z,3.85
2022-08-27T14:02:29.425Z,4.97
2022-08-27T14:05:11.572Z,5.45
2022-08-27T14:07:43.312Z,5.60
2022-08-27T14:10:32.529Z,5.28
2022-08-27T14:13:03.192Z,3.67
2022-08-27T14:15:35.908Z,4.30
2022-08-27T14:18:06.663Z,4.07
2022-08-27T14:20:36.959Z,3.60
2022-08-27T14:23:05.491Z,5.20
2022-08-27T14:25:34.926Z,4.45
2022-08-27T14:28:03.648Z,5.40
2022-08-27T14:30:33.450Z,4.93
2022-08-27T14:33:02.659Z,6.38
2022-08-27T14:35:32.722Z,4.07
2022-08-27T14:38:05.529Z,4.25
2022-08-27T14:40:34.035Z,6.05
2022-08-27T14:43:02.879Z,4.25
2022-08-27T14:45:33.231Z,5.07
2022-08-27T14:48:02.286Z,3.15
2022-08-27T14:50:30.907Z,3.55
2022-08-27T14:52:59.473Z,6.15
2022-08-27T14:55:27.925Z,5.18
2022-08-27T14:57:56.268Z,6.03
2022-08-27T15:00:24.948Z,6.63
2022-08-27T15:02:55.785Z,5.18
2022-08-27T15:05:26.833Z,6.30
2022-08-27T15:07:58.027Z,6.35
2022-08-27T15:10:28.539Z,3.05
2022-08-27T15:12:57.969Z,4.75
2022-08-27T15:15:26.475Z,4.60
2022-08-27T15:17:56.426Z,6.40
2022-08-27T15:20:24.849Z,8.15
2022-08-27T15:22:53.906Z,3.78
2022-08-27T15:25:22.531Z,5.95
2022-08-27T15:27:51.261Z,4.50
2022-08-27T15:30:26.075Z,3.17
2022-08-27T15:32:56.415Z,5.78
2022-08-27T15:35:27.592Z,3.80
2022-08-27T15:37:57.231Z,3.33
2022-08-27T15:40:28.120Z,6.15
2022-08-27T15:42:59.671Z,2.53
2022-08-27T15:45:28.614Z,4.93
2022-08-27T15:47:58.335Z,5.47
2022-08-27T15:50:28.321Z,5.65
2022-08-27T15:53:00.470Z,5.10
2022-08-27T15:55:32.205Z,3.35
2022-08-27T15:58:01.441Z,6.18
2022-08-27T16:00:32.523Z,4.25
2022-08-27T16:03:02.992Z,3.00
2022-08-27T16:05:34.801Z,4.25
2022-08-27T16:08:03.217Z,8.00
2022-08-27T16:10:31.561Z,6.35
2022-08-27T16:13:00.060Z,5.70
2022-08-27T16:15:28.637Z,8.13
2022-08-27T16:18:00.733Z,5.10
2022-08-27T16:20:30.385Z,7.13
2022-08-27T16:22:58.825Z,3.78
2022-08-27T16:25:27.368Z,4.55
2022-08-27T16:27:55.812Z,2.92
2022-08-27T16:30:24.245Z,6.40
2022-08-27T16:32:53.264Z,4.28
2022-08-27T16:35:25.334Z,4.22
2022-08-27T16:37:54.889Z,7.30
2022-08-27T16:40:23.587Z,9.07
2022-08-27T16:42:53.399Z,8.73
2022-08-27T16:45:23.755Z,4.30
2022-08-27T16:48:10.610Z,4.18
2022-08-27T16:50:39.174Z,3.95
2022-08-27T16:53:13.187Z,3.47
2022-08-27T16:55:42.414Z,6.97
2022-08-27T16:58:16.576Z,4.25
2022-08-27T17:00:45.852Z,5.82
2022-08-27T17:03:14.810Z,7.80
2022-08-27T17:05:43.385Z,8.50
2022-08-27T17:08:16.448Z,6.18
2022-08-27T17:10:48.706Z,3.72
2022-08-27T17:13:19.870Z,3.42
2022-08-27T17:15:52.902Z,3.20
2022-08-27T17:18:22.601Z,2.90
2022-08-27T17:20:52.227Z,5.88
2022-08-27T17:23:26.742Z,5.82
2022-08-27T17:25:55.005Z,4.30
2022-08-27T17:28:23.311Z,3.88
2022-08-27T17:30:51.768Z,5.10
2022-08-27T17:33:25.645Z,5.60
2022-08-27T17:35:53.956Z,3.58
2022-08-27T17:38:23.506Z,3.22
2022-08-27T17:40:53.377Z,4.13
2022-08-27T17:43:22.199Z,4.15
2022-08-27T17:45:51.185Z,4.90
2022-08-27T17:48:24.825Z,3.60
2022-08-27T17:50:55.077Z,7.28
2022-08-27T17:53:25.126Z,5.15
2022-08-27T17:55:53.477Z,4.90
2022-08-27T17:58:22.117Z,8.15
2022-08-27T18:00:51.228Z,7.38
2022-08-27T18:03:21.304Z,7.80
2022-08-27T18:05:51.207Z,9.95
2022-08-27T18:08:20.664Z,6.80
2022-08-27T18:10:50.424Z,8.32
2022-08-27T18:13:19.806Z,3.90
2022-08-27T18:15:50.241Z,8.73
2022-08-27T18:18:18.652Z,6.70
2022-08-27T18:20:47.102Z,9.23
2022-08-27T18:23:15.530Z,6.45
2022-08-27T18:25:45.664Z,5.63
2022-08-27T18:28:17.837Z,6.45
2022-08-27T18:30:48.057Z,6.00
2022-08-27T18:33:16.707Z,6.38
2022-08-27T18:35:45.251Z,9.10
2022-08-27T18:38:14.071Z,7.55
2022-08-27T18:40:45.339Z,8.43
2022-08-27T18:43:16.922Z,5.65
2022-08-27T18:45:45.939Z,7.75
2022-08-27T18:48:15.895Z,4.60
2022-08-27T18:50:46.923Z,4.88
2022-08-27T18:53:17.597Z,5.30
2022-08-27T18:55:46.038Z,8.18
2022-08-27T18:58:16.284Z,3.95
2022-08-27T19:00:46.989Z,7.82
2022-08-27T19:03:18.590Z,6.32
2022-08-27T19:05:47.252Z,7.72
2022-08-27T19:08:18.086Z,6.30
2022-08-27T19:10:49.849Z,8.20
2022-08-27T19:13:19.709Z,5.97
2022-08-27T19:15:53.597Z,6.55
2022-08-27T19:18:24.039Z,7.88
2022-08-27T19:20:52.637Z,4.40
2022-08-27T19:23:22.447Z,10.57
2022-08-27T19:25:51.754Z,11.05
2022-08-27T19:28:25.608Z,7.53
2022-08-27T19:30:55.110Z,5.15
2022-08-27T19:33:23.732Z,9.10
2022-08-27T19:35:52.183Z,8.00
2022-08-27T19:38:20.502Z,7.05
2022-08-27T19:40:48.935Z,7.10
2022-08-27T19:43:17.268Z,5.45
2022-08-27T19:45:47.500Z,6.07
2022-08-27T19:48:17.898Z,6.35
2022-08-27T19:50:46.432Z,9.07
2022-08-27T19:53:16.859Z,6.72
2022-08-27T19:55:46.087Z,3.08
2022-08-27T19:58:14.739Z,6.32
2022-08-27T20:00:43.726Z,5.20
2022-08-27T20:03:13.784Z,5.15
2022-08-27T20:05:42.201Z,5.95
2022-08-27T20:08:10.522Z,4.88
2022-08-27T20:10:41.953Z,7.13
2022-08-27T20:13:10.641Z,3.22
2022-08-27T20:15:40.541Z,4.88
2022-08-27T20:18:09.953Z,9.32
2022-08-27T20:20:40.121Z,6.35
2022-08-27T20:23:09.064Z,5.88
2022-08-27T20:25:37.944Z,7.03
2022-08-27T20:28:28.269Z,6.38
2022-08-27T20:30:57.421Z,7.15
2022-08-27T20:33:26.999Z,7.13
2022-08-27T20:35:59.340Z,5.90
2022-08-27T20:38:27.703Z,9.02
2022-08-27T20:40:56.186Z,7.32
2022-08-27T20:43:24.881Z,7.65
2022-08-27T20:45:53.361Z,5.70
2022-08-27T20:48:21.729Z,5.97
2022-08-27T20:50:50.622Z,5.53
2022-08-27T20:53:20.803Z,9.60
2022-08-27T20:55:49.123Z,7.57
2022-08-27T20:58:34.813Z,4.75
2022-08-27T21:01:03.108Z,10.68
2022-08-27T21:03:31.405Z,10.25
2022-08-27T21:05:59.813Z,8.63
2022-08-27T21:08:30.270Z,9.02
2022-08-27T21:10:59.363Z,5.25
2022-08-27T21:13:30.018Z,6.70
2022-08-27T21:15:58.487Z,5.22
2022-08-27T21:18:29.796Z,7.07
2022-08-27T21:20:58.578Z,8.07
2022-08-27T21:23:29.114Z,5.53
2022-08-27T21:26:01.250Z,5.65
2022-08-27T21:28:30.045Z,5.85
2022-08-27T21:30:58.310Z,9.73
2022-08-27T21:33:27.771Z,5.47
2022-08-27T21:35:56.226Z,8.57
2022-08-27T21:38:24.488Z,9.10
2022-08-27T21:40:54.163Z,8.20
2022-08-27T21:43:22.593Z,10.70
2022-08-27T21:45:54.930Z,7.82
2022-08-27T21:48:23.149Z,8.00
2022-08-27T21:50:53.487Z,9.10
2022-08-27T21:53:22.486Z,7.07
2022-08-27T21:55:54.848Z,8.88
2022-08-27T21:58:26.534Z,5.40
2022-08-27T22:00:55.858Z,10.35
2022-08-27T22:03:26.147Z,5.45
2022-08-27T22:05:54.550Z,5.70
2022-08-27T22:08:24.075Z,6.47
2022-08-27T22:10:55.582Z,10.07
2022-08-27T22:13:24.377Z,7.32
2022-08-27T22:15:53.080Z,6.15
2022-08-27T22:18:23.114Z,8.73
2022-08-27T22:20:52.968Z,8.13
2022-08-27T22:23:21.858Z,8.48
2022-08-27T22:25:50.233Z,7.13
2022-08-27T22:28:20.703Z,6.25
2022-08-27T22:30:49.119Z,8.00
2022-08-27T22:33:18.785Z,8.13
2022-08-27T22:35:47.130Z,7.68
2022-08-27T22:38:15.420Z,4.68
2022-08-27T22:40:43.870Z,8.65
2022-08-27T22:43:13.294Z,9.93
2022-08-27T22:45:42.993Z,11.88
2022-08-27T22:48:11.314Z,8.45
2022-08-27T22:50:39.835Z,9.82
2022-08-27T22:53:08.668Z,5.75
2022-08-27T22:55:37.084Z,9.52
2022-08-27T22:58:05.665Z,8.70
2022-08-27T23:00:35.383Z,8.93
2022-08-27T23:03:07.111Z,6.63
2022-08-27T23:05:41.707Z,12.52
2022-08-27T23:08:12.129Z,8.75
2022-08-27T23:10:40.893Z,6.57
2022-08-27T23:13:09.738Z,9.07
2022-08-27T23:15:38.642Z,4.90
2022-08-27T23:18:08.641Z,14.02
2022-08-27T23:20:37.171Z,11.57
2022-08-27T23:23:08.014Z,9.40
2022-08-27T23:25:54.278Z,9.95
2022-08-27T23:28:23.436Z,6.65
2022-08-27T23:30:51.988Z,5.55
2022-08-27T23:33:22.237Z,11.90
2022-08-27T23:35:51.803Z,9.05
2022-08-27T23:38:21.384Z,8.32
2022-08-27T23:40:52.157Z,6.22
2022-08-27T23:43:21.537Z,9.25
2022-08-27T23:45:49.975Z,7.72
2022-08-27T23:48:18.252Z,7.32
2022-08-27T23:50:47.733Z,6.88
2022-08-27T23:53:16.218Z,10.20
2022-08-27T23:55:44.870Z,9.13
2022-08-27T23:58:14.483Z,9.10
